createdAt,value
2024-02-05T00:01:33.740Z,8.90
2024-02-05T00:04:35.782Z,8.86
2024-02-05T00:07:37.959Z,8.93
2024-02-05T00:10:39.834Z,8.92
2024-02-05T00:13:41.609Z,8.83
2024-02-05T00:16:44.802Z,8.83
2024-02-05T00:19:46.735Z,8.85
2024-02-05T00:22:48.711Z,8.90
2024-02-05T00:25:50.511Z,8.82
2024-02-05T00:28:52.334Z,8.84
2024-02-05T00:31:55.454Z,8.73
2024-02-05T00:34:57.408Z,8.83
2024-02-05T00:37:59.201Z,8.84
2024-02-05T00:41:01.022Z,8.73
2024-02-05T00:44:02.872Z,8.80
2024-02-05T00:47:06.563Z,8.83
2024-02-05T00:50:09.266Z,8.65
2024-02-05T00:53:11.074Z,8.67
2024-02-05T00:56:12.921Z,8.78
2024-02-05T00:59:14.815Z,8.76
2024-02-05T01:02:18.146Z,8.71
2024-02-05T01:05:20.069Z,8.77
2024-02-05T01:08:21.905Z,8.75
2024-02-05T01:11:23.695Z,8.71
2024-02-05T01:14:25.471Z,8.75
2024-02-05T01:17:28.709Z,8.65
2024-02-05T01:20:30.684Z,8.69
2024-02-05T01:23:32.602Z,8.70
2024-02-05T01:26:34.439Z,8.77
2024-02-05T01:29:36.256Z,8.72
2024-02-05T01:32:39.359Z,8.67
2024-02-05T01:35:41.167Z,8.57
2024-02-05T01:38:42.956Z,8.63
2024-02-05T01:41:44.806Z,8.67
2024-02-05T01:44:46.620Z,8.43
2024-02-05T01:47:50.088Z,8.56
2024-02-05T01:50:52.543Z,8.60
2024-02-05T01:53:57.369Z,8.53
2024-02-05T01:57:00.862Z,8.50
2024-02-05T02:00:03.301Z,8.50
2024-02-05T02:03:06.900Z,8.48
2024-02-05T02:06:10.280Z,8.54
2024-02-05T02:09:12.395Z,8.53
2024-02-05T02:12:14.332Z,8.54
2024-02-05T02:15:16.324Z,8.47
2024-02-05T02:18:22.410Z,8.46
2024-02-05T02:21:26.855Z,8.48
2024-02-05T02:24:30.586Z,8.52
2024-02-05T02:27:32.365Z,8.46
2024-02-05T02:30:36.467Z,8.50
2024-02-05T02:33:46.506Z,8.53
2024-02-05T02:36:52.683Z,8.48
2024-02-05T02:39:58.408Z,8.41
2024-02-05T02:43:01.502Z,8.37
2024-02-05T02:46:04.651Z,8.32
2024-02-05T02:49:06.585Z,8.31
2024-02-05T02:52:08.491Z,8.25
2024-02-05T02:55:11.698Z,8.24
2024-02-05T02:58:13.652Z,8.23
2024-02-05T03:01:15.704Z,8.17
2024-02-05T03:04:17.640Z,8.19
2024-02-05T03:07:19.719Z,8.17
2024-02-05T03:10:22.973Z,8.14
2024-02-05T03:13:25.065Z,8.11
2024-02-05T03:16:26.868Z,8.07
2024-02-05T03:19:28.732Z,8.12
2024-02-05T03:22:30.734Z,8.05
2024-02-05T03:25:34.632Z,8.06
2024-02-05T03:28:36.523Z,8.03
2024-02-05T03:31:41.461Z,8.04
2024-02-05T03:34:43.411Z,7.99
2024-02-05T03:37:45.204Z,8.08
2024-02-05T03:40:48.415Z,8.00
2024-02-05T03:43:50.270Z,7.98
2024-02-05T03:46:52.223Z,7.98
2024-02-05T03:49:54.093Z,7.95
2024-02-05T03:52:55.885Z,8.00
2024-02-05T03:55:58.974Z,8.00
2024-02-05T03:59:00.878Z,7.85
2024-02-05T04:02:03.924Z,7.78
2024-02-05T04:05:07.725Z,7.70
2024-02-05T04:08:09.433Z,7.73
2024-02-05T04:11:12.559Z,7.74
2024-02-05T04:14:14.460Z,7.71
2024-02-05T04:17:18.281Z,7.74
2024-02-05T04:20:20.280Z,7.64
2024-02-05T04:23:22.197Z,7.69
2024-02-05T04:26:25.381Z,7.67
2024-02-05T04:29:27.184Z,7.68
2024-02-05T04:32:29.002Z,7.62
2024-02-05T04:35:30.899Z,7.58
2024-02-05T04:38:32.769Z,7.46
2024-02-05T04:41:35.964Z,7.48
2024-02-05T04:44:37.733Z,7.41
2024-02-05T04:47:39.521Z,7.30
2024-02-05T04:50:41.302Z,7.26
2024-02-05T04:53:43.002Z,7.18
2024-02-05T04:56:46.253Z,7.14
2024-02-05T04:59:47.959Z,7.13
2024-02-05T05:02:50.007Z,7.15
2024-02-05T05:05:51.717Z,7.14
2024-02-05T05:08:53.476Z,7.14
2024-02-05T05:11:56.697Z,7.13
2024-02-05T05:14:58.630Z,7.13
2024-02-05T05:18:01.035Z,7.12
2024-02-05T05:21:02.855Z,7.13
2024-02-05T05:24:05.195Z,7.14
2024-02-05T05:27:08.374Z,7.12
2024-02-05T05:30:11.337Z,7.14
2024-02-05T05:33:13.377Z,7.15
2024-02-05T05:36:15.273Z,7.11
2024-02-05T05:39:17.221Z,7.13
2024-02-05T05:42:20.570Z,7.05
2024-02-05T05:45:22.461Z,7.02
2024-02-05T05:48:24.495Z,6.96
2024-02-05T05:51:26.338Z,6.98
2024-02-05T05:54:28.265Z,6.97
2024-02-05T05:57:31.405Z,6.96
2024-02-05T06:00:33.270Z,6.91
2024-02-05T06:03:35.137Z,6.89
2024-02-05T06:06:37.127Z,6.80
2024-02-05T06:09:39.138Z,6.79
2024-02-05T06:12:42.811Z,6.82
2024-02-05T06:15:44.693Z,6.85
2024-02-05T06:18:46.634Z,6.84
2024-02-05T06:21:48.783Z,6.83
2024-02-05T06:24:50.676Z,6.81
2024-02-05T06:27:53.875Z,6.85
2024-02-05T06:30:55.711Z,6.83
2024-02-05T06:33:57.634Z,6.89
2024-02-05T06:36:59.543Z,6.90
2024-02-05T06:40:01.422Z,6.88
2024-02-05T06:43:05.213Z,6.90
2024-02-05T06:46:07.224Z,6.93
2024-02-05T06:49:09.191Z,6.83
2024-02-05T06:52:11.024Z,6.88
2024-02-05T06:55:12.845Z,6.89
2024-02-05T06:58:16.449Z,6.91
2024-02-05T07:01:18.354Z,6.86
2024-02-05T07:04:20.312Z,6.86
2024-02-05T07:07:23.451Z,6.86
2024-02-05T07:10:27.095Z,6.83
2024-02-05T07:13:30.757Z,6.77
2024-02-05T07:16:32.770Z,6.82
2024-02-05T07:19:37.445Z,6.79
2024-02-05T07:22:39.333Z,6.82
2024-02-05T07:25:41.370Z,6.83
2024-02-05T07:28:44.658Z,6.85
2024-02-05T07:31:46.881Z,6.84
2024-02-05T07:34:49.042Z,6.77
2024-02-05T07:37:51.004Z,6.80
2024-02-05T07:40:53.128Z,6.80
2024-02-05T07:43:56.694Z,6.81
2024-02-05T07:46:58.754Z,6.79
2024-02-05T07:50:01.270Z,6.84
2024-02-05T07:53:03.496Z,6.77
2024-02-05T07:56:06.557Z,6.80
2024-02-05T07:59:12.589Z,6.84
2024-02-05T08:02:14.584Z,6.83
2024-02-05T08:05:17.008Z,6.85
2024-02-05T08:08:19.051Z,6.87
2024-02-05T08:11:21.315Z,6.92
2024-02-05T08:14:24.905Z,6.94
2024-02-05T08:17:27.095Z,6.95
2024-02-05T08:20:29.141Z,7.02
2024-02-05T08:23:31.302Z,7.01
2024-02-05T08:26:35.361Z,7.12
2024-02-05T08:29:38.855Z,7.06
2024-02-05T08:32:41.251Z,7.13
2024-02-05T08:35:43.354Z,7.18
2024-02-05T08:38:45.140Z,7.27
2024-02-05T08:41:46.892Z,7.26
2024-02-05T08:44:50.119Z,7.25
2024-02-05T08:47:52.733Z,7.31
2024-02-05T08:50:54.577Z,7.37
2024-02-05T08:53:56.744Z,7.49
2024-02-05T08:56:58.737Z,7.57
2024-02-05T09:00:02.054Z,7.52
2024-02-05T09:03:06.232Z,7.54
2024-02-05T09:06:10.359Z,7.57
2024-02-05T09:09:12.209Z,7.60
2024-02-05T09:12:14.125Z,7.68
2024-02-05T09:15:17.267Z,7.70
2024-02-05T09:18:19.092Z,7.77
2024-02-05T09:21:20.951Z,7.91
2024-02-05T09:24:22.827Z,7.92
2024-02-05T09:27:24.593Z,7.94
2024-02-05T09:30:27.742Z,7.96
2024-02-05T09:33:29.437Z,7.99
2024-02-05T09:36:31.388Z,7.94
2024-02-05T09:39:33.254Z,8.05
2024-02-05T09:42:35.753Z,8.15
2024-02-05T09:45:48.568Z,8.18
2024-02-05T09:48:52.886Z,8.09
2024-02-05T09:51:56.055Z,8.14
2024-02-05T09:54:58.353Z,8.20
2024-02-05T09:58:00.498Z,8.20
2024-02-05T10:01:04.505Z,8.28
2024-02-05T10:04:09.084Z,8.27
2024-02-05T10:07:15.147Z,8.34
2024-02-05T10:10:19.365Z,8.37
2024-02-05T10:13:21.387Z,8.45
2024-02-05T10:16:24.723Z,8.58
2024-02-05T10:19:26.770Z,8.57
2024-02-05T10:22:28.851Z,8.45
2024-02-05T10:25:30.893Z,8.48
2024-02-05T10:28:32.806Z,8.56
2024-02-05T10:31:44.199Z,8.60
2024-02-05T10:34:51.762Z,8.58
2024-02-05T10:37:53.800Z,8.48
2024-02-05T10:40:56.113Z,8.47
2024-02-05T10:43:58.974Z,8.47
2024-02-05T10:47:02.620Z,8.50
2024-02-05T10:50:06.155Z,8.58
2024-02-05T10:53:08.224Z,8.58
2024-02-05T10:56:13.237Z,8.68
2024-02-05T10:59:15.058Z,8.77
2024-02-05T11:02:24.202Z,8.72
2024-02-05T11:05:26.701Z,8.75
2024-02-05T11:08:32.178Z,8.71
2024-02-05T11:11:35.229Z,8.77
2024-02-05T11:14:39.004Z,8.88
2024-02-05T11:17:43.167Z,8.94
2024-02-05T11:20:47.055Z,9.00
2024-02-05T11:23:50.781Z,8.96
2024-02-05T11:26:58.120Z,9.01
2024-02-05T11:30:02.774Z,8.97
2024-02-05T11:33:06.445Z,9.09
2024-02-05T11:36:11.182Z,9.09
2024-02-05T11:39:12.936Z,9.19
2024-02-05T11:42:18.489Z,9.28
2024-02-05T11:45:20.434Z,9.37
2024-02-05T11:48:23.696Z,9.50
2024-02-05T11:51:25.770Z,9.54
2024-02-05T11:54:29.237Z,9.64
2024-02-05T11:57:30.992Z,9.86
2024-02-05T12:00:32.882Z,9.89
2024-02-05T12:03:36.241Z,10.00
2024-02-05T12:06:38.166Z,10.16
2024-02-05T12:09:40.249Z,10.09
2024-02-05T12:12:42.226Z,10.11
2024-02-05T12:15:44.358Z,10.16
2024-02-05T12:21:55.332Z,10.22
2024-02-05T12:24:57.269Z,10.36
2024-02-05T12:27:59.543Z,10.44
2024-02-05T12:31:01.365Z,10.50
2024-02-05T12:34:06.556Z,10.56
2024-02-05T12:37:09.514Z,10.64
2024-02-05T12:40:12.561Z,10.70
2024-02-05T12:43:15.219Z,10.79
2024-02-05T12:46:17.310Z,10.85
2024-02-05T12:49:21.701Z,10.94
2024-02-05T12:52:23.619Z,10.97
2024-02-05T12:55:25.553Z,10.99
2024-02-05T12:58:27.500Z,11.02
2024-02-05T13:01:29.445Z,11.07
2024-02-05T13:04:33.134Z,11.16
2024-02-05T13:07:35.067Z,11.22
2024-02-05T13:10:41.241Z,11.35
2024-02-05T13:13:43.114Z,11.49
2024-02-05T13:16:44.908Z,11.52
2024-02-05T13:19:48.227Z,11.56
2024-02-05T13:22:50.091Z,11.50
2024-02-05T13:25:52.038Z,11.55
2024-02-05T13:28:54.008Z,11.58
2024-02-05T13:31:55.785Z,11.59
2024-02-05T13:34:59.043Z,11.64
2024-02-05T13:38:03.245Z,11.69
2024-02-05T13:41:06.938Z,11.77
2024-02-05T13:44:09.177Z,11.74
2024-02-05T13:47:10.989Z,11.71
2024-02-05T13:50:14.332Z,11.77
2024-02-05T13:53:16.143Z,11.83
2024-02-05T13:56:17.933Z,11.79
2024-02-05T13:59:19.891Z,11.82
2024-02-05T14:02:21.602Z,11.94
2024-02-05T14:05:24.898Z,11.97
2024-02-05T14:08:26.686Z,11.94
2024-02-05T14:11:28.517Z,11.97
2024-02-05T14:14:30.381Z,12.10
2024-02-05T14:17:32.214Z,12.06
2024-02-05T14:20:35.328Z,12.13
2024-02-05T14:23:37.071Z,12.17
2024-02-05T14:26:38.813Z,12.13
2024-02-05T14:29:42.612Z,12.16
2024-02-05T14:32:44.415Z,12.20
2024-02-05T14:35:47.804Z,12.11
2024-02-05T14:38:49.548Z,12.25
2024-02-05T14:41:51.354Z,12.03
2024-02-05T14:44:53.145Z,11.81
2024-02-05T14:47:54.980Z,11.68
2024-02-05T14:50:58.335Z,11.53
2024-02-05T14:54:00.315Z,11.49
2024-02-05T14:57:02.107Z,11.47
2024-02-05T15:00:04.428Z,11.53
2024-02-05T15:03:06.288Z,11.41
2024-02-05T15:06:09.515Z,11.31
2024-02-05T15:09:11.410Z,11.33
2024-02-05T15:12:13.214Z,11.37
2024-02-05T15:15:15.226Z,11.13
2024-02-05T15:18:17.099Z,11.01
2024-02-05T15:21:20.742Z,11.08
2024-02-05T15:24:22.605Z,10.98
2024-02-05T15:27:24.423Z,10.86
2024-02-05T15:30:26.476Z,10.93
2024-02-05T15:33:29.031Z,10.68
2024-02-05T15:36:32.604Z,10.66
2024-02-05T15:39:34.510Z,10.49
2024-02-05T15:42:36.688Z,10.31
2024-02-05T15:45:38.591Z,10.29
2024-02-05T15:48:40.698Z,10.05
2024-02-05T15:51:44.182Z,10.01
2024-02-05T15:54:46.119Z,9.96
2024-02-05T15:57:48.115Z,9.94
2024-02-05T16:00:50.148Z,9.51
2024-02-05T16:03:52.054Z,9.24
2024-02-05T16:06:55.449Z,9.12
2024-02-05T16:09:57.748Z,8.94
2024-02-05T16:12:59.558Z,8.95
2024-02-05T16:16:01.329Z,8.50
2024-02-05T16:19:03.233Z,8.48
2024-02-05T16:22:06.554Z,8.40
2024-02-05T16:25:09.109Z,8.13
2024-02-05T16:28:11.034Z,7.92
2024-02-05T16:31:16.923Z,7.69
2024-02-05T16:34:20.217Z,7.61
2024-02-05T16:37:23.486Z,7.60
2024-02-05T16:40:26.104Z,7.80
2024-02-05T16:43:31.089Z,7.65
2024-02-05T16:46:33.291Z,7.23
2024-02-05T16:49:35.200Z,7.41
2024-02-05T16:52:38.554Z,7.13
2024-02-05T16:55:40.436Z,6.97
2024-02-05T16:58:42.327Z,6.67
2024-02-05T17:01:44.315Z,6.62
2024-02-05T17:04:46.219Z,6.57
2024-02-05T17:07:49.452Z,6.49
2024-02-05T17:10:51.237Z,6.55
2024-02-05T17:13:53.076Z,6.55
2024-02-05T17:16:58.938Z,6.59
2024-02-05T17:20:01.542Z,6.57
2024-02-05T17:23:04.973Z,6.53
2024-02-05T17:26:06.752Z,6.47
2024-02-05T17:29:08.491Z,6.17
2024-02-05T17:32:10.471Z,6.16
2024-02-05T17:35:12.316Z,6.26
2024-02-05T17:38:16.811Z,6.04
2024-02-05T17:41:19.632Z,5.73
2024-02-05T17:44:21.364Z,5.61
2024-02-05T17:47:23.155Z,5.70
2024-02-05T17:50:24.941Z,5.68
2024-02-05T17:53:28.245Z,5.60
2024-02-05T17:56:30.062Z,5.82
2024-02-05T17:59:31.896Z,5.70
2024-02-05T18:02:33.888Z,5.68
2024-02-05T18:05:35.829Z,5.77
2024-02-05T18:08:39.115Z,5.77
2024-02-05T18:11:40.970Z,5.75
2024-02-05T18:14:42.788Z,5.71
2024-02-05T18:17:44.670Z,5.60
2024-02-05T18:20:48.354Z,5.66
2024-02-05T18:23:53.847Z,5.81
2024-02-05T18:26:55.578Z,5.88
2024-02-05T18:29:57.283Z,5.81
2024-02-05T18:32:59.111Z,5.77
2024-02-05T18:36:00.943Z,5.80
2024-02-05T18:39:04.080Z,5.85
2024-02-05T18:42:06.672Z,5.64
2024-02-05T18:45:09.573Z,5.68
2024-02-05T18:48:11.441Z,5.74
2024-02-05T18:51:13.201Z,5.66
2024-02-05T18:54:16.341Z,5.76
2024-02-05T18:57:18.622Z,5.84
2024-02-05T19:00:21.082Z,6.04
2024-02-05T19:03:22.887Z,6.20
2024-02-05T19:06:29.222Z,6.36
2024-02-05T19:09:32.911Z,6.47
2024-02-05T19:12:34.864Z,7.01
2024-02-05T19:15:36.676Z,7.05
2024-02-05T19:18:38.482Z,7.80
2024-02-05T19:21:40.235Z,8.26
2024-02-05T19:24:43.383Z,8.66
2024-02-05T19:27:45.171Z,8.65
2024-02-05T19:30:46.969Z,8.78
2024-02-05T19:34:04.132Z,9.07
2024-02-05T19:37:06.258Z,9.06
2024-02-05T19:40:10.421Z,9.13
2024-02-05T19:43:12.208Z,9.39
2024-02-05T19:46:17.254Z,9.41
2024-02-05T19:49:19.179Z,9.54
2024-02-05T19:52:21.022Z,9.61
2024-02-05T19:55:24.215Z,9.70
2024-02-05T19:58:26.029Z,9.69
2024-02-05T20:01:27.942Z,9.63
2024-02-05T20:04:29.915Z,9.61
2024-02-05T20:07:31.874Z,9.71
2024-02-05T20:10:35.220Z,9.80
2024-02-05T20:13:37.274Z,9.73
2024-02-05T20:16:39.082Z,9.77
2024-02-05T20:19:40.989Z,9.83
2024-02-05T20:22:42.892Z,9.90
2024-02-05T20:25:46.200Z,9.93
2024-02-05T20:28:48.017Z,9.77
2024-02-05T20:31:51.231Z,9.66
2024-02-05T20:34:53.217Z,9.80
2024-02-05T20:37:55.072Z,9.95
2024-02-05T20:40:58.268Z,9.94
2024-02-05T20:44:00.105Z,10.03
2024-02-05T20:47:01.888Z,9.97
2024-02-05T20:50:04.255Z,10.04
2024-02-05T20:53:06.253Z,10.00
2024-02-05T20:56:09.530Z,9.99
2024-02-05T20:59:11.285Z,10.01
2024-02-05T21:02:13.261Z,9.97
2024-02-05T21:05:15.411Z,9.91
2024-02-05T21:08:17.532Z,9.88
2024-02-05T21:11:20.871Z,9.87
2024-02-05T21:14:22.696Z,9.92
2024-02-05T21:17:24.425Z,9.83
2024-02-05T21:20:26.262Z,9.88
2024-02-05T21:23:28.276Z,9.88
2024-02-05T21:26:32.414Z,9.82
2024-02-05T21:29:34.236Z,9.86
2024-02-05T21:32:36.079Z,9.97
2024-02-05T21:35:37.843Z,10.08
2024-02-05T21:38:39.634Z,10.01
2024-02-05T21:41:42.915Z,10.07
2024-02-05T21:44:44.682Z,10.01
2024-02-05T21:47:46.456Z,10.05
2024-02-05T21:50:48.261Z,10.21
2024-02-05T21:53:50.045Z,10.08
2024-02-05T21:56:53.186Z,10.12
2024-02-05T21:59:55.003Z,10.22
2024-02-05T22:02:56.815Z,10.34
2024-02-05T22:05:58.788Z,10.34
2024-02-05T22:09:00.596Z,10.37
2024-02-05T22:12:04.298Z,10.41
2024-02-05T22:15:06.566Z,10.32
2024-02-05T22:18:08.622Z,10.37
2024-02-05T22:21:10.440Z,10.50
2024-02-05T22:24:12.202Z,10.40
2024-02-05T22:27:15.283Z,10.39
2024-02-05T22:30:17.091Z,10.64
2024-02-05T22:33:19.020Z,10.70
2024-02-05T22:36:20.856Z,10.81
2024-02-05T22:39:22.679Z,10.79
2024-02-05T22:42:25.862Z,10.81
2024-02-05T22:45:27.614Z,10.74
2024-02-05T22:48:29.452Z,10.79
2024-02-05T22:51:31.774Z,10.83
2024-02-05T22:54:33.586Z,10.66
2024-02-05T22:57:36.706Z,10.62
2024-02-05T23:00:38.449Z,10.79
2024-02-05T23:03:40.237Z,10.79
2024-02-05T23:06:42.056Z,10.78
2024-02-05T23:09:43.925Z,10.63
2024-02-05T23:12:47.090Z,10.56
2024-02-05T23:15:49.047Z,10.47
2024-02-05T23:18:50.891Z,10.51
2024-02-05T23:21:52.742Z,10.48
2024-02-05T23:24:54.516Z,10.44
2024-02-05T23:27:57.813Z,10.44
2024-02-05T23:30:59.719Z,10.47
2024-02-05T23:34:01.742Z,10.46
2024-02-05T23:37:04.045Z,10.44
2024-02-05T23:40:07.092Z,10.51
2024-02-05T23:43:10.356Z,10.59
2024-02-05T23:46:12.219Z,10.60
2024-02-05T23:49:14.136Z,10.58
2024-02-05T23:52:15.984Z,10.63
2024-02-05T23:55:18.098Z,10.70
2024-02-05T23:58:21.374Z,10.65
